sensor_id;sensor_type;location;lat;lon;timestamp;temperature;humidity
42145;DHT22;27813;43.516;11.890;2024-01-30T00:02:41;-3274.80;86.20
42145;DHT22;27813;43.516;11.890;2024-01-30T00:06:47;-3274.70;86.20
42145;DHT22;27813;43.516;11.890;2024-01-30T00:10:51;-3274.60;86.20
42145;DHT22;27813;43.516;11.890;2024-01-30T00:14:55;-3274.50;86.40
42145;DHT22;27813;43.516;11.890;2024-01-30T00:18:59;-3274.60;86.80
42145;DHT22;27813;43.516;11.890;2024-01-30T00:23:06;-3274.70;86.70
42145;DHT22;27813;43.516;11.890;2024-01-30T00:27:10;-3274.70;86.30
42145;DHT22;27813;43.516;11.890;2024-01-30T00:31:14;-3274.60;86.10
42145;DHT22;27813;43.516;11.890;2024-01-30T00:35:19;-3274.50;86.30
42145;DHT22;27813;43.516;11.890;2024-01-30T00:39:25;-3274.30;86.50
42145;DHT22;27813;43.516;11.890;2024-01-30T00:43:29;-3274.30;86.80
42145;DHT22;27813;43.516;11.890;2024-01-30T00:47:34;-3274.30;86.50
42145;DHT22;27813;43.516;11.890;2024-01-30T00:51:38;-3274.30;86.60
42145;DHT22;27813;43.516;11.890;2024-01-30T00:55:42;-3274.20;86.60
42145;DHT22;27813;43.516;11.890;2024-01-30T00:59:46;-3274.10;86.60
42145;DHT22;27813;43.516;11.890;2024-01-30T01:03:50;-3274.00;86.60
42145;DHT22;27813;43.516;11.890;2024-01-30T01:07:54;-3273.90;86.60
42145;DHT22;27813;43.516;11.890;2024-01-30T01:11:58;-3273.80;86.70
42145;DHT22;27813;43.516;11.890;2024-01-30T01:16:03;-3273.90;86.70
42145;DHT22;27813;43.516;11.890;2024-01-30T01:20:08;-3273.90;86.80
42145;DHT22;27813;43.516;11.890;2024-01-30T01:24:12;-3273.90;86.80
42145;DHT22;27813;43.516;11.890;2024-01-30T01:28:16;-3273.80;86.20
42145;DHT22;27813;43.516;11.890;2024-01-30T01:32:20;-3273.90;86.00
42145;DHT22;27813;43.516;11.890;2024-01-30T01:36:25;-3274.00;85.80
42145;DHT22;27813;43.516;11.890;2024-01-30T01:40:29;-3274.00;85.80
42145;DHT22;27813;43.516;11.890;2024-01-30T01:44:33;-3273.90;85.80
42145;DHT22;27813;43.516;11.890;2024-01-30T01:48:37;-3273.90;86.00
42145;DHT22;27813;43.516;11.890;2024-01-30T01:52:44;-3274.00;85.80
42145;DHT22;27813;43.516;11.890;2024-01-30T01:56:48;-3273.90;85.70
42145;DHT22;27813;43.516;11.890;2024-01-30T02:00:52;-3273.80;85.50
42145;DHT22;27813;43.516;11.890;2024-01-30T02:04:59;-3273.80;85.80
42145;DHT22;27813;43.516;11.890;2024-01-30T02:09:03;-3273.70;85.80
42145;DHT22;27813;43.516;11.890;2024-01-30T02:13:09;-3273.60;85.70
42145;DHT22;27813;43.516;11.890;2024-01-30T02:17:15;-3273.50;85.60
42145;DHT22;27813;43.516;11.890;2024-01-30T02:21:19;-3273.40;85.50
42145;DHT22;27813;43.516;11.890;2024-01-30T02:25:40;-3273.40;85.50
42145;DHT22;27813;43.516;11.890;2024-01-30T02:29:48;-3273.30;85.70
42145;DHT22;27813;43.516;11.890;2024-01-30T02:33:51;-3273.30;85.60
42145;DHT22;27813;43.516;11.890;2024-01-30T02:37:56;-3273.40;85.70
42145;DHT22;27813;43.516;11.890;2024-01-30T02:42:00;-3273.30;85.50
42145;DHT22;27813;43.516;11.890;2024-01-30T02:46:04;-3273.30;85.80
42145;DHT22;27813;43.516;11.890;2024-01-30T02:50:09;-3273.40;85.90
42145;DHT22;27813;43.516;11.890;2024-01-30T02:54:13;-3273.40;85.90
42145;DHT22;27813;43.516;11.890;2024-01-30T02:58:17;-3273.50;86.50
42145;DHT22;27813;43.516;11.890;2024-01-30T03:07:00;-3273.50;86.20
42145;DHT22;27813;43.516;11.890;2024-01-30T03:11:04;-3273.40;86.30
42145;DHT22;27813;43.516;11.890;2024-01-30T03:15:09;-3273.60;86.20
42145;DHT22;27813;43.516;11.890;2024-01-30T03:19:13;-3273.50;85.70
42145;DHT22;27813;43.516;11.890;2024-01-30T03:23:18;-3273.40;85.70
42145;DHT22;27813;43.516;11.890;2024-01-30T03:27:22;-3273.30;85.50
42145;DHT22;27813;43.516;11.890;2024-01-30T03:31:26;-3273.20;85.30
42145;DHT22;27813;43.516;11.890;2024-01-30T03:35:32;-3273.10;85.10
42145;DHT22;27813;43.516;11.890;2024-01-30T03:39:36;-3273.10;85.50
42145;DHT22;27813;43.516;11.890;2024-01-30T03:43:40;-3273.10;85.40
42145;DHT22;27813;43.516;11.890;2024-01-30T03:47:45;-3273.10;85.40
42145;DHT22;27813;43.516;11.890;2024-01-30T03:51:50;-3273.10;85.10
42145;DHT22;27813;43.516;11.890;2024-01-30T03:55:54;-3273.10;84.80
42145;DHT22;27813;43.516;11.890;2024-01-30T03:59:58;-3273.00;84.50
42145;DHT22;27813;43.516;11.890;2024-01-30T04:04:14;-3273.00;84.60
42145;DHT22;27813;43.516;11.890;2024-01-30T04:08:18;-3273.00;84.70
42145;DHT22;27813;43.516;11.890;2024-01-30T04:12:22;-3273.00;84.70
42145;DHT22;27813;43.516;11.890;2024-01-30T04:16:26;-3273.00;84.50
42145;DHT22;27813;43.516;11.890;2024-01-30T04:20:31;-3272.80;84.30
42145;DHT22;27813;43.516;11.890;2024-01-30T04:24:35;-3272.80;84.10
42145;DHT22;27813;43.516;11.890;2024-01-30T04:28:41;-3272.70;84.40
42145;DHT22;27813;43.516;11.890;2024-01-30T04:32:46;-3272.70;84.40
42145;DHT22;27813;43.516;11.890;2024-01-30T04:36:50;-3272.60;84.20
42145;DHT22;27813;43.516;11.890;2024-01-30T04:40:54;-3272.60;84.10
42145;DHT22;27813;43.516;11.890;2024-01-30T04:44:59;-3272.50;84.10
42145;DHT22;27813;43.516;11.890;2024-01-30T04:49:03;-3272.40;84.30
42145;DHT22;27813;43.516;11.890;2024-01-30T04:53:07;-3272.40;84.20
42145;DHT22;27813;43.516;11.890;2024-01-30T04:57:12;-3272.30;84.20
42145;DHT22;27813;43.516;11.890;2024-01-30T05:01:16;-3272.30;84.10
42145;DHT22;27813;43.516;11.890;2024-01-30T05:05:21;-3272.30;83.90
42145;DHT22;27813;43.516;11.890;2024-01-30T05:09:25;-3272.30;83.90
42145;DHT22;27813;43.516;11.890;2024-01-30T05:13:32;-3272.30;83.80
42145;DHT22;27813;43.516;11.890;2024-01-30T05:17:36;-3272.30;83.70
42145;DHT22;27813;43.516;11.890;2024-01-30T05:21:41;-3272.30;83.70
42145;DHT22;27813;43.516;11.890;2024-01-30T05:25:46;-3272.30;83.70
42145;DHT22;27813;43.516;11.890;2024-01-30T05:29:50;-3272.40;83.60
42145;DHT22;27813;43.516;11.890;2024-01-30T05:33:55;-3272.30;83.40
42145;DHT22;27813;43.516;11.890;2024-01-30T05:37:59;-3272.20;83.50
42145;DHT22;27813;43.516;11.890;2024-01-30T05:42:04;-3272.20;83.50
42145;DHT22;27813;43.516;11.890;2024-01-30T05:46:08;-3272.20;83.40
42145;DHT22;27813;43.516;11.890;2024-01-30T05:50:12;-3272.20;83.40
42145;DHT22;27813;43.516;11.890;2024-01-30T05:54:17;-3272.20;83.70
42145;DHT22;27813;43.516;11.890;2024-01-30T05:58:21;-3272.30;83.70
42145;DHT22;27813;43.516;11.890;2024-01-30T06:02:27;-3272.30;83.70
42145;DHT22;27813;43.516;11.890;2024-01-30T06:06:31;-3272.30;84.10
42145;DHT22;27813;43.516;11.890;2024-01-30T06:10:38;-3272.30;84.20
42145;DHT22;27813;43.516;11.890;2024-01-30T06:14:43;-3272.30;84.00
42145;DHT22;27813;43.516;11.890;2024-01-30T06:18:50;-3272.30;84.10
42145;DHT22;27813;43.516;11.890;2024-01-30T06:22:54;-3272.20;84.10
42145;DHT22;27813;43.516;11.890;2024-01-30T06:26:58;-3272.20;84.30
42145;DHT22;27813;43.516;11.890;2024-01-30T06:31:02;-3272.20;84.10
42145;DHT22;27813;43.516;11.890;2024-01-30T06:35:07;-3272.20;83.90
42145;DHT22;27813;43.516;11.890;2024-01-30T06:39:13;-3272.20;83.70
42145;DHT22;27813;43.516;11.890;2024-01-30T06:43:19;-3272.10;83.80
42145;DHT22;27813;43.516;11.890;2024-01-30T06:47:23;-3272.20;83.80
42145;DHT22;27813;43.516;11.890;2024-01-30T06:51:28;-3272.20;83.70
42145;DHT22;27813;43.516;11.890;2024-01-30T06:55:33;-3272.20;83.80
42145;DHT22;27813;43.516;11.890;2024-01-30T06:59:37;-3272.20;84.20
42145;DHT22;27813;43.516;11.890;2024-01-30T07:03:48;-3272.30;84.30
42145;DHT22;27813;43.516;11.890;2024-01-30T07:07:52;-3272.30;84.50
42145;DHT22;27813;43.516;11.890;2024-01-30T07:11:56;-3272.30;84.90
42145;DHT22;27813;43.516;11.890;2024-01-30T07:16:02;-3272.30;85.00
42145;DHT22;27813;43.516;11.890;2024-01-30T07:20:08;-3272.40;85.00
42145;DHT22;27813;43.516;11.890;2024-01-30T07:24:19;-3272.50;85.00
42145;DHT22;27813;43.516;11.890;2024-01-30T07:28:23;-3272.50;84.90
42145;DHT22;27813;43.516;11.890;2024-01-30T07:32:29;-3272.60;85.10
42145;DHT22;27813;43.516;11.890;2024-01-30T07:36:33;-3272.70;85.40
42145;DHT22;27813;43.516;11.890;2024-01-30T07:40:37;-3272.90;85.60
42145;DHT22;27813;43.516;11.890;2024-01-30T07:44:42;-3273.00;85.80
42145;DHT22;27813;43.516;11.890;2024-01-30T07:48:46;-3273.20;85.90
42145;DHT22;27813;43.516;11.890;2024-01-30T07:52:53;-3273.30;86.00
42145;DHT22;27813;43.516;11.890;2024-01-30T07:56:59;-3273.50;86.20
42145;DHT22;27813;43.516;11.890;2024-01-30T08:01:04;-3273.60;86.30
42145;DHT22;27813;43.516;11.890;2024-01-30T08:05:08;-3273.80;86.60
42145;DHT22;27813;43.516;11.890;2024-01-30T08:09:15;-3273.90;86.90
42145;DHT22;27813;43.516;11.890;2024-01-30T08:13:19;-3274.00;87.10
42145;DHT22;27813;43.516;11.890;2024-01-30T15:58:04;4.40;78.00
42145;DHT22;27813;43.516;11.890;2024-01-30T16:02:10;4.10;78.20
42145;DHT22;27813;43.516;11.890;2024-01-30T16:06:17;3.90;78.40
42145;DHT22;27813;43.516;11.890;2024-01-30T16:10:28;3.80;78.70
42145;DHT22;27813;43.516;11.890;2024-01-30T16:14:38;3.60;78.90
42145;DHT22;27813;43.516;11.890;2024-01-30T16:18:43;3.30;79.10
42145;DHT22;27813;43.516;11.890;2024-01-30T16:22:47;3.10;79.30
42145;DHT22;27813;43.516;11.890;2024-01-30T16:26:55;2.80;79.50
42145;DHT22;27813;43.516;11.890;2024-01-30T16:31:03;2.50;79.80
42145;DHT22;27813;43.516;11.890;2024-01-30T16:35:07;2.10;80.30
42145;DHT22;27813;43.516;11.890;2024-01-30T16:39:13;1.90;80.70
42145;DHT22;27813;43.516;11.890;2024-01-30T16:43:17;1.50;81.20
42145;DHT22;27813;43.516;11.890;2024-01-30T16:47:29;1.20;82.00
42145;DHT22;27813;43.516;11.890;2024-01-30T16:51:42;1.10;82.70
42145;DHT22;27813;43.516;11.890;2024-01-30T16:55:47;1.20;82.80
42145;DHT22;27813;43.516;11.890;2024-01-30T16:59:52;1.20;82.40
42145;DHT22;27813;43.516;11.890;2024-01-30T17:03:56;1.20;82.20
42145;DHT22;27813;43.516;11.890;2024-01-30T17:08:00;1.00;82.60
42145;DHT22;27813;43.516;11.890;2024-01-30T17:12:05;1.00;82.70
42145;DHT22;27813;43.516;11.890;2024-01-30T17:16:09;0.90;82.60
42145;DHT22;27813;43.516;11.890;2024-01-30T17:20:14;0.90;82.80
42145;DHT22;27813;43.516;11.890;2024-01-30T17:24:19;0.90;82.80
42145;DHT22;27813;43.516;11.890;2024-01-30T17:28:32;0.90;82.90
42145;DHT22;27813;43.516;11.890;2024-01-30T17:32:37;0.80;82.80
42145;DHT22;27813;43.516;11.890;2024-01-30T17:36:41;0.80;83.10
42145;DHT22;27813;43.516;11.890;2024-01-30T17:40:45;0.80;82.90
42145;DHT22;27813;43.516;11.890;2024-01-30T17:44:54;0.70;83.00
42145;DHT22;27813;43.516;11.890;2024-01-30T17:49:01;0.70;83.10
42145;DHT22;27813;43.516;11.890;2024-01-30T17:53:11;0.60;83.10
42145;DHT22;27813;43.516;11.890;2024-01-30T17:57:16;0.40;83.30
42145;DHT22;27813;43.516;11.890;2024-01-30T18:01:21;0.30;83.50
42145;DHT22;27813;43.516;11.890;2024-01-30T18:05:25;0.20;83.40
42145;DHT22;27813;43.516;11.890;2024-01-30T18:09:31;0.00;83.60
42145;DHT22;27813;43.516;11.890;2024-01-30T18:13:36;0.00;83.90
42145;DHT22;27813;43.516;11.890;2024-01-30T18:17:40;0.00;84.10
42145;DHT22;27813;43.516;11.890;2024-01-30T18:21:44;-3276.70;84.10
42145;DHT22;27813;43.516;11.890;2024-01-30T18:25:49;-3276.60;84.30
42145;DHT22;27813;43.516;11.890;2024-01-30T18:29:53;-3276.60;84.50
42145;DHT22;27813;43.516;11.890;2024-01-30T18:34:01;-3276.70;84.60
42145;DHT22;27813;43.516;11.890;2024-01-30T18:38:05;-3276.60;84.40
42145;DHT22;27813;43.516;11.890;2024-01-30T18:42:09;-3276.50;84.40
42145;DHT22;27813;43.516;11.890;2024-01-30T18:46:14;-3276.50;84.70
42145;DHT22;27813;43.516;11.890;2024-01-30T18:50:20;-3276.50;84.60
42145;DHT22;27813;43.516;11.890;2024-01-30T18:54:24;-3276.50;84.50
42145;DHT22;27813;43.516;11.890;2024-01-30T18:58:29;-3276.40;84.70
42145;DHT22;27813;43.516;11.890;2024-01-30T19:02:33;-3276.30;84.80
42145;DHT22;27813;43.516;11.890;2024-01-30T19:06:38;-3276.30;85.00
42145;DHT22;27813;43.516;11.890;2024-01-30T19:10:43;-3276.40;85.00
42145;DHT22;27813;43.516;11.890;2024-01-30T19:14:49;-3276.40;84.90
42145;DHT22;27813;43.516;11.890;2024-01-30T19:18:57;-3276.40;84.90
42145;DHT22;27813;43.516;11.890;2024-01-30T19:23:05;-3276.40;84.70
42145;DHT22;27813;43.516;11.890;2024-01-30T19:27:09;-3276.30;84.80
42145;DHT22;27813;43.516;11.890;2024-01-30T19:31:14;-3276.30;84.90
42145;DHT22;27813;43.516;11.890;2024-01-30T19:35:22;-3276.30;85.00
42145;DHT22;27813;43.516;11.890;2024-01-30T19:39:34;-3276.20;85.20
42145;DHT22;27813;43.516;11.890;2024-01-30T19:43:38;-3276.20;85.20
42145;DHT22;27813;43.516;11.890;2024-01-30T19:47:42;-3276.20;85.10
42145;DHT22;27813;43.516;11.890;2024-01-30T19:51:47;-3276.10;84.90
42145;DHT22;27813;43.516;11.890;2024-01-30T19:55:51;-3276.10;84.90
42145;DHT22;27813;43.516;11.890;2024-01-30T19:59:55;-3276.00;85.10
42145;DHT22;27813;43.516;11.890;2024-01-30T20:03:59;-3275.90;85.20
42145;DHT22;27813;43.516;11.890;2024-01-30T20:08:04;-3275.80;85.20
42145;DHT22;27813;43.516;11.890;2024-01-30T20:12:08;-3275.80;85.30
42145;DHT22;27813;43.516;11.890;2024-01-30T20:16:12;-3275.80;85.40
42145;DHT22;27813;43.516;11.890;2024-01-30T20:20:17;-3275.90;85.30
42145;DHT22;27813;43.516;11.890;2024-01-30T20:24:22;-3275.90;85.30
42145;DHT22;27813;43.516;11.890;2024-01-30T20:28:26;-3275.80;85.20
42145;DHT22;27813;43.516;11.890;2024-01-30T20:32:32;-3275.80;85.40
42145;DHT22;27813;43.516;11.890;2024-01-30T20:36:36;-3275.70;85.40
42145;DHT22;27813;43.516;11.890;2024-01-30T20:40:41;-3275.70;85.50
42145;DHT22;27813;43.516;11.890;2024-01-30T20:44:47;-3275.60;85.40
42145;DHT22;27813;43.516;11.890;2024-01-30T20:48:51;-3275.50;85.60
42145;DHT22;27813;43.516;11.890;2024-01-30T20:52:55;-3275.30;85.70
42145;DHT22;27813;43.516;11.890;2024-01-30T20:57:00;-3275.30;85.90
42145;DHT22;27813;43.516;11.890;2024-01-30T21:01:04;-3275.40;86.00
42145;DHT22;27813;43.516;11.890;2024-01-30T21:05:08;-3275.40;86.00
42145;DHT22;27813;43.516;11.890;2024-01-30T21:09:13;-3275.50;86.00
42145;DHT22;27813;43.516;11.890;2024-01-30T21:13:18;-3275.60;86.00
42145;DHT22;27813;43.516;11.890;2024-01-30T21:17:22;-3275.60;85.60
42145;DHT22;27813;43.516;11.890;2024-01-30T21:21:31;-3275.60;85.50
42145;DHT22;27813;43.516;11.890;2024-01-30T21:25:36;-3275.50;85.60
42145;DHT22;27813;43.516;11.890;2024-01-30T21:29:43;-3275.40;85.70
42145;DHT22;27813;43.516;11.890;2024-01-30T21:33:47;-3275.30;85.90
42145;DHT22;27813;43.516;11.890;2024-01-30T21:37:51;-3275.30;86.00
42145;DHT22;27813;43.516;11.890;2024-01-30T21:41:57;-3275.30;85.90
42145;DHT22;27813;43.516;11.890;2024-01-30T21:46:02;-3275.20;86.20
42145;DHT22;27813;43.516;11.890;2024-01-30T21:50:11;-3275.30;86.30
42145;DHT22;27813;43.516;11.890;2024-01-30T21:54:16;-3275.30;86.30
42145;DHT22;27813;43.516;11.890;2024-01-30T21:58:20;-3275.20;86.10
42145;DHT22;27813;43.516;11.890;2024-01-30T22:02:24;-3275.20;86.30
42145;DHT22;27813;43.516;11.890;2024-01-30T22:06:28;-3275.10;86.50
42145;DHT22;27813;43.516;11.890;2024-01-30T22:10:34;-3275.10;86.50
42145;DHT22;27813;43.516;11.890;2024-01-30T22:14:38;-3275.00;86.70
42145;DHT22;27813;43.516;11.890;2024-01-30T22:18:42;-3275.00;86.60
42145;DHT22;27813;43.516;11.890;2024-01-30T22:22:47;-3275.00;86.80
42145;DHT22;27813;43.516;11.890;2024-01-30T22:26:53;-3275.00;86.90
42145;DHT22;27813;43.516;11.890;2024-01-30T22:30:59;-3275.00;86.80
42145;DHT22;27813;43.516;11.890;2024-01-30T22:35:04;-3275.00;86.80
42145;DHT22;27813;43.516;11.890;2024-01-30T22:39:17;-3275.10;86.80
42145;DHT22;27813;43.516;11.890;2024-01-30T22:43:21;-3275.20;86.50
42145;DHT22;27813;43.516;11.890;2024-01-30T22:47:25;-3275.20;86.70
42145;DHT22;27813;43.516;11.890;2024-01-30T22:51:30;-3275.20;86.40
42145;DHT22;27813;43.516;11.890;2024-01-30T22:55:34;-3275.00;86.40
42145;DHT22;27813;43.516;11.890;2024-01-30T22:59:38;-3275.00;86.60
42145;DHT22;27813;43.516;11.890;2024-01-30T23:03:42;-3275.00;86.70
42145;DHT22;27813;43.516;11.890;2024-01-30T23:07:47;-3274.90;86.70
42145;DHT22;27813;43.516;11.890;2024-01-30T23:11:52;-3274.80;86.80
42145;DHT22;27813;43.516;11.890;2024-01-30T23:15:57;-3274.80;87.00
42145;DHT22;27813;43.516;11.890;2024-01-30T23:20:01;-3274.80;86.90
42145;DHT22;27813;43.516;11.890;2024-01-30T23:24:06;-3274.80;86.90
42145;DHT22;27813;43.516;11.890;2024-01-30T23:28:10;-3274.70;86.90
42145;DHT22;27813;43.516;11.890;2024-01-30T23:32:14;-3274.70;87.30
42145;DHT22;27813;43.516;11.890;2024-01-30T23:36:39;-3274.70;87.30
42145;DHT22;27813;43.516;11.890;2024-01-30T23:40:45;-3274.70;87.10
42145;DHT22;27813;43.516;11.890;2024-01-30T23:44:52;-3274.60;87.00
42145;DHT22;27813;43.516;11.890;2024-01-30T23:48:58;-3274.60;87.00
42145;DHT22;27813;43.516;11.890;2024-01-30T23:53:04;-3274.50;87.20
42145;DHT22;27813;43.516;11.890;2024-01-30T23:57:11;-3274.50;87.40
